sensor_id;sensor_type;location;lat;lon;timestamp;P1;durP1;ratioP1;P2;durP2;ratioP2
17606;SDS011;69222;52.242;20.980;2023-08-21T00:01:49;10.10;;;9.20;;
17606;SDS011;69222;52.242;20.980;2023-08-21T00:04:17;11.73;;;10.45;;
17606;SDS011;69222;52.242;20.980;2023-08-21T00:06:44;11.63;;;10.48;;
17606;SDS011;69222;52.242;20.980;2023-08-21T00:09:14;11.93;;;10.48;;
17606;SDS011;69222;52.242;20.980;2023-08-21T00:11:42;10.18;;;9.10;;
17606;SDS011;69222;52.242;20.980;2023-08-21T00:14:10;11.40;;;10.20;;
17606;SDS011;69222;52.242;20.980;2023-08-21T00:16:38;11.32;;;10.13;;
17606;SDS011;69222;52.242;20.980;2023-08-21T00:19:06;13.60;;;10.75;;
17606;SDS011;69222;52.242;20.980;2023-08-21T00:21:34;12.27;;;10.95;;
17606;SDS011;69222;52.242;20.980;2023-08-21T00:24:02;11.88;;;10.70;;
17606;SDS011;69222;52.242;20.980;2023-08-21T00:26:31;11.32;;;10.32;;
17606;SDS011;69222;52.242;20.980;2023-08-21T00:28:59;10.60;;;9.63;;
17606;SDS011;69222;52.242;20.980;2023-08-21T00:31:27;11.52;;;9.55;;
17606;SDS011;69222;52.242;20.980;2023-08-21T00:33:55;11.70;;;10.60;;
17606;SDS011;69222;52.242;20.980;2023-08-21T00:36:23;11.75;;;10.55;;
17606;SDS011;69222;52.242;20.980;2023-08-21T00:38:51;11.18;;;10.07;;
17606;SDS011;69222;52.242;20.980;2023-08-21T00:41:19;11.93;;;10.73;;
17606;SDS011;69222;52.242;20.980;2023-08-21T00:43:48;11.65;;;10.55;;
17606;SDS011;69222;52.242;20.980;2023-08-21T00:46:16;12.02;;;10.93;;
17606;SDS011;69222;52.242;20.980;2023-08-21T00:48:44;11.35;;;10.27;;
17606;SDS011;69222;52.242;20.980;2023-08-21T00:51:13;12.30;;;11.10;;
17606;SDS011;69222;52.242;20.980;2023-08-21T00:53:42;12.20;;;11.15;;
17606;SDS011;69222;52.242;20.980;2023-08-21T00:56:11;12.85;;;11.65;;
17606;SDS011;69222;52.242;20.980;2023-08-21T00:58:40;17.67;;;12.02;;
17606;SDS011;69222;52.242;20.980;2023-08-21T01:01:11;13.38;;;12.07;;
17606;SDS011;69222;52.242;20.980;2023-08-21T01:03:42;13.15;;;11.70;;
17606;SDS011;69222;52.242;20.980;2023-08-21T01:06:10;12.10;;;10.80;;
17606;SDS011;69222;52.242;20.980;2023-08-21T01:08:40;12.65;;;11.27;;
17606;SDS011;69222;52.242;20.980;2023-08-21T01:11:16;12.38;;;11.00;;
17606;SDS011;69222;52.242;20.980;2023-08-21T01:13:57;13.57;;;12.32;;
17606;SDS011;69222;52.242;20.980;2023-08-21T01:16:36;15.02;;;11.68;;
17606;SDS011;69222;52.242;20.980;2023-08-21T01:19:06;12.98;;;11.30;;
17606;SDS011;69222;52.242;20.980;2023-08-21T01:21:39;12.48;;;11.38;;
17606;SDS011;69222;52.242;20.980;2023-08-21T01:24:09;13.10;;;11.70;;
17606;SDS011;69222;52.242;20.980;2023-08-21T01:26:37;14.10;;;11.75;;
17606;SDS011;69222;52.242;20.980;2023-08-21T01:29:05;14.70;;;13.30;;
17606;SDS011;69222;52.242;20.980;2023-08-21T01:31:33;14.95;;;12.07;;
17606;SDS011;69222;52.242;20.980;2023-08-21T01:34:04;14.13;;;12.73;;
17606;SDS011;69222;52.242;20.980;2023-08-21T01:36:35;14.45;;;12.95;;
17606;SDS011;69222;52.242;20.980;2023-08-21T01:39:03;13.95;;;12.32;;
17606;SDS011;69222;52.242;20.980;2023-08-21T01:41:33;13.98;;;12.57;;
17606;SDS011;69222;52.242;20.980;2023-08-21T01:44:01;14.68;;;13.15;;
17606;SDS011;69222;52.242;20.980;2023-08-21T01:46:29;14.75;;;13.43;;
17606;SDS011;69222;52.242;20.980;2023-08-21T01:48:57;13.85;;;12.57;;
17606;SDS011;69222;52.242;20.980;2023-08-21T01:51:25;14.30;;;12.93;;
17606;SDS011;69222;52.242;20.980;2023-08-21T01:53:53;14.80;;;13.30;;
17606;SDS011;69222;52.242;20.980;2023-08-21T01:56:21;14.35;;;12.85;;
17606;SDS011;69222;52.242;20.980;2023-08-21T01:58:50;14.25;;;12.85;;
17606;SDS011;69222;52.242;20.980;2023-08-21T02:01:18;13.73;;;12.32;;
17606;SDS011;69222;52.242;20.980;2023-08-21T02:03:46;14.27;;;12.80;;
17606;SDS011;69222;52.242;20.980;2023-08-21T02:06:14;14.18;;;12.88;;
17606;SDS011;69222;52.242;20.980;2023-08-21T02:08:43;15.13;;;12.75;;
17606;SDS011;69222;52.242;20.980;2023-08-21T02:11:11;14.32;;;12.90;;
17606;SDS011;69222;52.242;20.980;2023-08-21T02:13:39;14.45;;;12.98;;
17606;SDS011;69222;52.242;20.980;2023-08-21T02:16:08;14.18;;;12.85;;
17606;SDS011;69222;52.242;20.980;2023-08-21T02:18:36;15.15;;;11.73;;
17606;SDS011;69222;52.242;20.980;2023-08-21T02:21:04;14.27;;;12.77;;
17606;SDS011;69222;52.242;20.980;2023-08-21T02:23:32;14.82;;;13.32;;
17606;SDS011;69222;52.242;20.980;2023-08-21T02:26:00;14.65;;;12.77;;
17606;SDS011;69222;52.242;20.980;2023-08-21T02:28:28;14.70;;;13.25;;
17606;SDS011;69222;52.242;20.980;2023-08-21T02:30:56;14.63;;;12.73;;
17606;SDS011;69222;52.242;20.980;2023-08-21T02:33:25;14.60;;;13.10;;
17606;SDS011;69222;52.242;20.980;2023-08-21T02:35:53;13.88;;;12.32;;
17606;SDS011;69222;52.242;20.980;2023-08-21T02:38:21;13.20;;;11.70;;
17606;SDS011;69222;52.242;20.980;2023-08-21T02:40:49;13.82;;;12.60;;
17606;SDS011;69222;52.242;20.980;2023-08-21T02:43:17;14.65;;;13.15;;
17606;SDS011;69222;52.242;20.980;2023-08-21T02:45:45;18.98;;;14.07;;
17606;SDS011;69222;52.242;20.980;2023-08-21T02:48:13;15.57;;;12.88;;
17606;SDS011;69222;52.242;20.980;2023-08-21T02:50:42;15.68;;;13.13;;
17606;SDS011;69222;52.242;20.980;2023-08-21T02:53:10;14.13;;;12.73;;
17606;SDS011;69222;52.242;20.980;2023-08-21T02:55:38;15.07;;;13.57;;
17606;SDS011;69222;52.242;20.980;2023-08-21T02:58:06;15.43;;;13.82;;
17606;SDS011;69222;52.242;20.980;2023-08-21T03:00:34;14.45;;;12.95;;
17606;SDS011;69222;52.242;20.980;2023-08-21T03:03:02;15.93;;;13.88;;
17606;SDS011;69222;52.242;20.980;2023-08-21T03:05:31;15.43;;;13.90;;
17606;SDS011;69222;52.242;20.980;2023-08-21T03:08:01;14.40;;;12.93;;
17606;SDS011;69222;52.242;20.980;2023-08-21T03:10:29;14.73;;;13.25;;
17606;SDS011;69222;52.242;20.980;2023-08-21T03:13:00;14.75;;;13.20;;
17606;SDS011;69222;52.242;20.980;2023-08-21T03:15:28;14.35;;;12.93;;
17606;SDS011;69222;52.242;20.980;2023-08-21T03:17:56;14.52;;;13.05;;
17606;SDS011;69222;52.242;20.980;2023-08-21T03:20:24;15.02;;;13.43;;
17606;SDS011;69222;52.242;20.980;2023-08-21T03:22:52;16.30;;;13.15;;
17606;SDS011;69222;52.242;20.980;2023-08-21T03:25:21;14.93;;;13.43;;
17606;SDS011;69222;52.242;20.980;2023-08-21T03:27:49;15.25;;;13.80;;
17606;SDS011;69222;52.242;20.980;2023-08-21T03:30:17;15.80;;;13.40;;
17606;SDS011;69222;52.242;20.980;2023-08-21T03:32:45;15.30;;;13.82;;
17606;SDS011;69222;52.242;20.980;2023-08-21T03:35:13;15.55;;;13.85;;
17606;SDS011;69222;52.242;20.980;2023-08-21T03:37:41;14.88;;;13.38;;
17606;SDS011;69222;52.242;20.980;2023-08-21T03:40:09;16.13;;;14.57;;
17606;SDS011;69222;52.242;20.980;2023-08-21T03:42:39;16.73;;;14.93;;
17606;SDS011;69222;52.242;20.980;2023-08-21T03:45:07;15.77;;;14.35;;
17606;SDS011;69222;52.242;20.980;2023-08-21T03:47:35;15.93;;;14.30;;
17606;SDS011;69222;52.242;20.980;2023-08-21T03:50:03;16.20;;;14.60;;
17606;SDS011;69222;52.242;20.980;2023-08-21T03:52:32;15.30;;;13.90;;
17606;SDS011;69222;52.242;20.980;2023-08-21T03:55:00;15.63;;;14.00;;
17606;SDS011;69222;52.242;20.980;2023-08-21T03:57:28;17.38;;;14.38;;
17606;SDS011;69222;52.242;20.980;2023-08-21T03:59:57;16.20;;;14.60;;
17606;SDS011;69222;52.242;20.980;2023-08-21T04:02:25;16.55;;;15.05;;
17606;SDS011;69222;52.242;20.980;2023-08-21T04:04:53;16.75;;;15.00;;
17606;SDS011;69222;52.242;20.980;2023-08-21T04:07:21;15.50;;;14.05;;
17606;SDS011;69222;52.242;20.980;2023-08-21T04:09:49;17.13;;;15.32;;
17606;SDS011;69222;52.242;20.980;2023-08-21T04:12:16;16.95;;;15.18;;
17606;SDS011;69222;52.242;20.980;2023-08-21T04:14:44;15.90;;;14.30;;
17606;SDS011;69222;52.242;20.980;2023-08-21T04:17:13;16.85;;;15.18;;
17606;SDS011;69222;52.242;20.980;2023-08-21T04:19:41;16.88;;;14.88;;
17606;SDS011;69222;52.242;20.980;2023-08-21T04:22:11;20.08;;;15.05;;
17606;SDS011;69222;52.242;20.980;2023-08-21T04:24:39;16.42;;;14.30;;
17606;SDS011;69222;52.242;20.980;2023-08-21T04:27:07;15.45;;;13.85;;
17606;SDS011;69222;52.242;20.980;2023-08-21T04:29:35;16.02;;;14.43;;
17606;SDS011;69222;52.242;20.980;2023-08-21T04:32:04;16.80;;;15.15;;
17606;SDS011;69222;52.242;20.980;2023-08-21T04:34:34;16.77;;;14.95;;
17606;SDS011;69222;52.242;20.980;2023-08-21T04:37:03;16.65;;;14.82;;
17606;SDS011;69222;52.242;20.980;2023-08-21T04:39:31;17.10;;;15.35;;
17606;SDS011;69222;52.242;20.980;2023-08-21T04:41:59;16.52;;;15.02;;
17606;SDS011;69222;52.242;20.980;2023-08-21T04:44:27;16.65;;;14.95;;
17606;SDS011;69222;52.242;20.980;2023-08-21T04:46:55;17.23;;;15.43;;
17606;SDS011;69222;52.242;20.980;2023-08-21T04:49:23;19.88;;;15.82;;
17606;SDS011;69222;52.242;20.980;2023-08-21T04:51:52;17.27;;;15.27;;
17606;SDS011;69222;52.242;20.980;2023-08-21T04:54:20;16.10;;;14.68;;
17606;SDS011;69222;52.242;20.980;2023-08-21T04:56:48;15.68;;;14.18;;
17606;SDS011;69222;52.242;20.980;2023-08-21T04:59:16;17.20;;;14.77;;
17606;SDS011;69222;52.242;20.980;2023-08-21T05:01:44;16.27;;;14.55;;
17606;SDS011;69222;52.242;20.980;2023-08-21T05:04:12;19.67;;;15.63;;
17606;SDS011;69222;52.242;20.980;2023-08-21T05:06:40;16.80;;;15.00;;
17606;SDS011;69222;52.242;20.980;2023-08-21T05:09:09;16.77;;;15.18;;
17606;SDS011;69222;52.242;20.980;2023-08-21T05:11:37;19.38;;;16.17;;
17606;SDS011;69222;52.242;20.980;2023-08-21T05:14:04;16.92;;;15.23;;
17606;SDS011;69222;52.242;20.980;2023-08-21T05:16:33;18.42;;;15.50;;
17606;SDS011;69222;52.242;20.980;2023-08-21T05:19:01;15.05;;;13.73;;
17606;SDS011;69222;52.242;20.980;2023-08-21T05:21:29;16.17;;;14.65;;
17606;SDS011;69222;52.242;20.980;2023-08-21T05:23:57;16.20;;;14.73;;
17606;SDS011;69222;52.242;20.980;2023-08-21T05:26:26;15.63;;;14.13;;
17606;SDS011;69222;52.242;20.980;2023-08-21T05:28:54;15.15;;;13.73;;
17606;SDS011;69222;52.242;20.980;2023-08-21T05:31:22;16.85;;;15.10;;
17606;SDS011;69222;52.242;20.980;2023-08-21T05:33:50;15.60;;;14.02;;
17606;SDS011;69222;52.242;20.980;2023-08-21T05:36:18;15.98;;;14.48;;
17606;SDS011;69222;52.242;20.980;2023-08-21T05:38:46;16.33;;;14.60;;
17606;SDS011;69222;52.242;20.980;2023-08-21T05:41:15;17.02;;;15.45;;
17606;SDS011;69222;52.242;20.980;2023-08-21T05:43:44;15.10;;;13.68;;
17606;SDS011;69222;52.242;20.980;2023-08-21T05:46:13;16.67;;;15.07;;
17606;SDS011;69222;52.242;20.980;2023-08-21T05:48:41;15.90;;;13.98;;
17606;SDS011;69222;52.242;20.980;2023-08-21T05:51:09;16.42;;;13.85;;
17606;SDS011;69222;52.242;20.980;2023-08-21T05:53:37;17.70;;;14.98;;
17606;SDS011;69222;52.242;20.980;2023-08-21T05:56:05;15.25;;;13.65;;
17606;SDS011;69222;52.242;20.980;2023-08-21T05:58:33;19.20;;;13.93;;
17606;SDS011;69222;52.242;20.980;2023-08-21T06:01:05;16.38;;;14.00;;
17606;SDS011;69222;52.242;20.980;2023-08-21T06:03:33;15.95;;;14.27;;
17606;SDS011;69222;52.242;20.980;2023-08-21T06:06:01;15.90;;;14.25;;
17606;SDS011;69222;52.242;20.980;2023-08-21T06:08:29;16.05;;;14.38;;
17606;SDS011;69222;52.242;20.980;2023-08-21T06:10:57;15.73;;;14.15;;
17606;SDS011;69222;52.242;20.980;2023-08-21T06:13:25;14.88;;;13.30;;
17606;SDS011;69222;52.242;20.980;2023-08-21T06:15:53;16.13;;;14.52;;
17606;SDS011;69222;52.242;20.980;2023-08-21T06:18:22;15.23;;;13.73;;
17606;SDS011;69222;52.242;20.980;2023-08-21T06:20:50;16.48;;;14.80;;
17606;SDS011;69222;52.242;20.980;2023-08-21T06:23:20;16.52;;;14.77;;
17606;SDS011;69222;52.242;20.980;2023-08-21T06:25:48;16.92;;;15.27;;
17606;SDS011;69222;52.242;20.980;2023-08-21T06:28:16;17.50;;;15.68;;
17606;SDS011;69222;52.242;20.980;2023-08-21T06:30:44;16.02;;;14.43;;
17606;SDS011;69222;52.242;20.980;2023-08-21T06:33:12;19.23;;;15.00;;
17606;SDS011;69222;52.242;20.980;2023-08-21T06:35:42;15.50;;;14.10;;
17606;SDS011;69222;52.242;20.980;2023-08-21T06:38:10;17.58;;;14.30;;
17606;SDS011;69222;52.242;20.980;2023-08-21T06:40:38;18.50;;;14.70;;
17606;SDS011;69222;52.242;20.980;2023-08-21T06:43:06;15.07;;;13.63;;
17606;SDS011;69222;52.242;20.980;2023-08-21T06:45:33;14.65;;;13.25;;
17606;SDS011;69222;52.242;20.980;2023-08-21T06:48:02;15.73;;;14.18;;
17606;SDS011;69222;52.242;20.980;2023-08-21T06:50:30;15.05;;;13.55;;
17606;SDS011;69222;52.242;20.980;2023-08-21T06:52:59;15.15;;;13.75;;
17606;SDS011;69222;52.242;20.980;2023-08-21T06:55:27;13.57;;;12.38;;
17606;SDS011;69222;52.242;20.980;2023-08-21T06:57:55;16.42;;;12.73;;
17606;SDS011;69222;52.242;20.980;2023-08-21T07:00:23;13.48;;;12.18;;
17606;SDS011;69222;52.242;20.980;2023-08-21T07:02:51;15.95;;;14.35;;
17606;SDS011;69222;52.242;20.980;2023-08-21T07:05:20;14.52;;;13.13;;
17606;SDS011;69222;52.242;20.980;2023-08-21T07:07:48;18.05;;;14.63;;
17606;SDS011;69222;52.242;20.980;2023-08-21T07:10:17;17.52;;;14.55;;
17606;SDS011;69222;52.242;20.980;2023-08-21T07:12:45;16.15;;;14.05;;
17606;SDS011;69222;52.242;20.980;2023-08-21T07:15:13;15.43;;;13.93;;
17606;SDS011;69222;52.242;20.980;2023-08-21T07:17:42;17.23;;;14.50;;
17606;SDS011;69222;52.242;20.980;2023-08-21T07:20:10;17.13;;;15.52;;
17606;SDS011;69222;52.242;20.980;2023-08-21T07:22:38;16.67;;;14.98;;
17606;SDS011;69222;52.242;20.980;2023-08-21T07:25:07;15.30;;;13.75;;
17606;SDS011;69222;52.242;20.980;2023-08-21T07:27:37;17.02;;;15.32;;
17606;SDS011;69222;52.242;20.980;2023-08-21T07:30:06;17.25;;;15.60;;
17606;SDS011;69222;52.242;20.980;2023-08-21T07:32:34;19.02;;;16.20;;
17606;SDS011;69222;52.242;20.980;2023-08-21T07:35:03;16.73;;;15.10;;
17606;SDS011;69222;52.242;20.980;2023-08-21T07:37:32;17.48;;;15.55;;
17606;SDS011;69222;52.242;20.980;2023-08-21T07:40:00;18.02;;;16.33;;
17606;SDS011;69222;52.242;20.980;2023-08-21T07:42:28;18.48;;;16.67;;
17606;SDS011;69222;52.242;20.980;2023-08-21T07:44:57;18.20;;;16.27;;
17606;SDS011;69222;52.242;20.980;2023-08-21T07:47:26;17.10;;;15.50;;
17606;SDS011;69222;52.242;20.980;2023-08-21T07:49:54;18.13;;;16.33;;
17606;SDS011;69222;52.242;20.980;2023-08-21T07:52:23;17.25;;;15.43;;
17606;SDS011;69222;52.242;20.980;2023-08-21T07:54:51;18.52;;;14.68;;
17606;SDS011;69222;52.242;20.980;2023-08-21T07:57:20;17.20;;;15.40;;
17606;SDS011;69222;52.242;20.980;2023-08-21T07:59:48;16.33;;;14.82;;
17606;SDS011;69222;52.242;20.980;2023-08-21T08:02:17;17.35;;;15.55;;
17606;SDS011;69222;52.242;20.980;2023-08-21T08:04:45;16.85;;;15.15;;
17606;SDS011;69222;52.242;20.980;2023-08-21T08:07:13;17.20;;;15.50;;
17606;SDS011;69222;52.242;20.980;2023-08-21T08:09:41;15.98;;;14.27;;
17606;SDS011;69222;52.242;20.980;2023-08-21T08:12:09;16.52;;;14.93;;
17606;SDS011;69222;52.242;20.980;2023-08-21T08:14:37;15.65;;;14.07;;
17606;SDS011;69222;52.242;20.980;2023-08-21T08:17:05;14.75;;;13.18;;
17606;SDS011;69222;52.242;20.980;2023-08-21T08:19:34;14.32;;;12.90;;
17606;SDS011;69222;52.242;20.980;2023-08-21T08:22:02;13.80;;;12.35;;
17606;SDS011;69222;52.242;20.980;2023-08-21T08:24:30;14.85;;;13.25;;
17606;SDS011;69222;52.242;20.980;2023-08-21T08:26:58;12.93;;;11.73;;
17606;SDS011;69222;52.242;20.980;2023-08-21T08:29:26;13.13;;;11.93;;
17606;SDS011;69222;52.242;20.980;2023-08-21T08:31:54;13.60;;;12.35;;
17606;SDS011;69222;52.242;20.980;2023-08-21T08:34:22;13.45;;;12.25;;
17606;SDS011;69222;52.242;20.980;2023-08-21T08:36:51;12.73;;;11.45;;
17606;SDS011;69222;52.242;20.980;2023-08-21T08:39:19;12.43;;;11.15;;
17606;SDS011;69222;52.242;20.980;2023-08-21T08:41:48;11.95;;;10.85;;
17606;SDS011;69222;52.242;20.980;2023-08-21T08:44:21;12.93;;;10.20;;
17606;SDS011;69222;52.242;20.980;2023-08-21T08:46:52;11.38;;;9.23;;
17606;SDS011;69222;52.242;20.980;2023-08-21T08:49:20;10.10;;;9.18;;
17606;SDS011;69222;52.242;20.980;2023-08-21T08:51:50;9.73;;;8.93;;
17606;SDS011;69222;52.242;20.980;2023-08-21T08:54:20;9.68;;;8.55;;
17606;SDS011;69222;52.242;20.980;2023-08-21T08:56:49;9.15;;;8.18;;
17606;SDS011;69222;52.242;20.980;2023-08-21T08:59:20;10.18;;;8.82;;
17606;SDS011;69222;52.242;20.980;2023-08-21T09:01:48;9.93;;;9.02;;
17606;SDS011;69222;52.242;20.980;2023-08-21T09:04:16;10.73;;;8.52;;
17606;SDS011;69222;52.242;20.980;2023-08-21T09:06:44;8.05;;;7.10;;
17606;SDS011;69222;52.242;20.980;2023-08-21T09:09:13;11.23;;;7.32;;
17606;SDS011;69222;52.242;20.980;2023-08-21T09:11:42;9.15;;;7.43;;
17606;SDS011;69222;52.242;20.980;2023-08-21T09:14:10;9.15;;;7.05;;
17606;SDS011;69222;52.242;20.980;2023-08-21T09:16:56;7.72;;;7.07;;
17606;SDS011;69222;52.242;20.980;2023-08-21T09:19:27;9.18;;;7.15;;
17606;SDS011;69222;52.242;20.980;2023-08-21T09:21:55;6.75;;;6.25;;
17606;SDS011;69222;52.242;20.980;2023-08-21T09:24:24;7.50;;;6.80;;
17606;SDS011;69222;52.242;20.980;2023-08-21T09:26:52;6.60;;;6.00;;
17606;SDS011;69222;52.242;20.980;2023-08-21T09:29:20;6.25;;;5.75;;
17606;SDS011;69222;52.242;20.980;2023-08-21T09:31:48;6.78;;;6.18;;
17606;SDS011;69222;52.242;20.980;2023-08-21T09:34:16;6.13;;;4.97;;
17606;SDS011;69222;52.242;20.980;2023-08-21T09:36:46;6.15;;;5.00;;
17606;SDS011;69222;52.242;20.980;2023-08-21T09:39:21;5.80;;;5.25;;
17606;SDS011;69222;52.242;20.980;2023-08-21T09:41:55;6.72;;;5.38;;
17606;SDS011;69222;52.242;20.980;2023-08-21T09:44:24;6.82;;;5.63;;
17606;SDS011;69222;52.242;20.980;2023-08-21T09:46:52;6.00;;;5.50;;
17606;SDS011;69222;52.242;20.980;2023-08-21T09:49:20;5.63;;;5.13;;
17606;SDS011;69222;52.242;20.980;2023-08-21T09:51:49;5.72;;;4.90;;
17606;SDS011;69222;52.242;20.980;2023-08-21T09:54:18;5.97;;;4.95;;
17606;SDS011;69222;52.242;20.980;2023-08-21T09:56:46;6.20;;;4.93;;
17606;SDS011;69222;52.242;20.980;2023-08-21T09:59:17;4.80;;;4.35;;
17606;SDS011;69222;52.242;20.980;2023-08-21T10:01:46;4.10;;;3.80;;
17606;SDS011;69222;52.242;20.980;2023-08-21T10:04:18;3.88;;;3.58;;
17606;SDS011;69222;52.242;20.980;2023-08-21T10:06:49;3.95;;;3.35;;
17606;SDS011;69222;52.242;20.980;2023-08-21T10:09:21;3.35;;;3.05;;
17606;SDS011;69222;52.242;20.980;2023-08-21T10:11:52;3.45;;;3.13;;
17606;SDS011;69222;52.242;20.980;2023-08-21T10:14:23;3.47;;;3.17;;
17606;SDS011;69222;52.242;20.980;2023-08-21T10:16:51;4.13;;;3.70;;
17606;SDS011;69222;52.242;20.980;2023-08-21T10:19:21;4.38;;;3.83;;
17606;SDS011;69222;52.242;20.980;2023-08-21T10:21:49;3.33;;;3.13;;
17606;SDS011;69222;52.242;20.980;2023-08-21T10:24:26;2.50;;;2.40;;
17606;SDS011;69222;52.242;20.980;2023-08-21T10:26:58;2.85;;;2.65;;
17606;SDS011;69222;52.242;20.980;2023-08-21T10:29:28;3.13;;;2.92;;
17606;SDS011;69222;52.242;20.980;2023-08-21T10:31:59;3.10;;;2.80;;
17606;SDS011;69222;52.242;20.980;2023-08-21T10:34:32;4.13;;;2.92;;
17606;SDS011;69222;52.242;20.980;2023-08-21T10:37:08;3.53;;;3.17;;
17606;SDS011;69222;52.242;20.980;2023-08-21T10:39:54;2.95;;;2.75;;
17606;SDS011;69222;52.242;20.980;2023-08-21T10:42:36;3.85;;;3.55;;
17606;SDS011;69222;52.242;20.980;2023-08-21T10:45:16;3.60;;;3.30;;
17606;SDS011;69222;52.242;20.980;2023-08-21T10:47:44;3.42;;;3.22;;
17606;SDS011;69222;52.242;20.980;2023-08-21T10:50:13;3.28;;;3.08;;
17606;SDS011;69222;52.242;20.980;2023-08-21T10:52:42;3.13;;;2.88;;
17606;SDS011;69222;52.242;20.980;2023-08-21T10:55:11;3.30;;;3.00;;
17606;SDS011;69222;52.242;20.980;2023-08-21T10:57:40;3.63;;;3.33;;
17606;SDS011;69222;52.242;20.980;2023-08-21T11:00:09;3.90;;;3.60;;
17606;SDS011;69222;52.242;20.980;2023-08-21T11:02:40;4.20;;;3.80;;
17606;SDS011;69222;52.242;20.980;2023-08-21T11:05:10;4.18;;;3.78;;
17606;SDS011;69222;52.242;20.980;2023-08-21T11:07:40;4.15;;;3.75;;
17606;SDS011;69222;52.242;20.980;2023-08-21T11:10:11;3.45;;;3.25;;
17606;SDS011;69222;52.242;20.980;2023-08-21T11:12:49;3.40;;;3.20;;
17606;SDS011;69222;52.242;20.980;2023-08-21T11:15:18;3.85;;;3.55;;
17606;SDS011;69222;52.242;20.980;2023-08-21T11:17:56;4.07;;;3.78;;
17606;SDS011;69222;52.242;20.980;2023-08-21T11:20:29;3.80;;;3.50;;
17606;SDS011;69222;52.242;20.980;2023-08-21T11:23:01;6.88;;;3.53;;
17606;SDS011;69222;52.242;20.980;2023-08-21T11:25:33;4.20;;;3.85;;
17606;SDS011;69222;52.242;20.980;2023-08-21T11:28:01;5.25;;;3.80;;
17606;SDS011;69222;52.242;20.980;2023-08-21T11:30:30;4.10;;;3.80;;
17606;SDS011;69222;52.242;20.980;2023-08-21T11:33:06;3.58;;;3.28;;
17606;SDS011;69222;52.242;20.980;2023-08-21T11:35:34;4.32;;;3.42;;
17606;SDS011;69222;52.242;20.980;2023-08-21T11:38:03;3.50;;;3.20;;
17606;SDS011;69222;52.242;20.980;2023-08-21T11:40:35;4.00;;;2.90;;
17606;SDS011;69222;52.242;20.980;2023-08-21T11:43:03;2.85;;;2.65;;
17606;SDS011;69222;52.242;20.980;2023-08-21T11:45:33;3.95;;;2.80;;
17606;SDS011;69222;52.242;20.980;2023-08-21T11:48:20;2.70;;;2.45;;
17606;SDS011;69222;52.242;20.980;2023-08-21T11:50:48;3.80;;;2.35;;
17606;SDS011;69222;52.242;20.980;2023-08-21T11:53:29;2.92;;;2.70;;
17606;SDS011;69222;52.242;20.980;2023-08-21T11:55:58;5.13;;;2.72;;
17606;SDS011;69222;52.242;20.980;2023-08-21T11:58:26;3.30;;;2.55;;
17606;SDS011;69222;52.242;20.980;2023-08-21T12:00:54;3.20;;;2.75;;
17606;SDS011;69222;52.242;20.980;2023-08-21T12:03:31;2.85;;;2.58;;
17606;SDS011;69222;52.242;20.980;2023-08-21T12:06:05;4.82;;;2.45;;
17606;SDS011;69222;52.242;20.980;2023-08-21T12:08:33;2.75;;;2.53;;
17606;SDS011;69222;52.242;20.980;2023-08-21T12:11:02;3.72;;;3.10;;
17606;SDS011;69222;52.242;20.980;2023-08-21T12:13:30;3.55;;;3.15;;
17606;SDS011;69222;52.242;20.980;2023-08-21T12:16:01;3.08;;;2.72;;
17606;SDS011;69222;52.242;20.980;2023-08-21T12:18:29;3.45;;;3.03;;
17606;SDS011;69222;52.242;20.980;2023-08-21T12:20:58;3.90;;;2.90;;
17606;SDS011;69222;52.242;20.980;2023-08-21T12:23:26;3.67;;;2.72;;
17606;SDS011;69222;52.242;20.980;2023-08-21T12:25:55;3.60;;;2.53;;
17606;SDS011;69222;52.242;20.980;2023-08-21T12:28:23;2.60;;;2.40;;
17606;SDS011;69222;52.242;20.980;2023-08-21T12:30:51;2.90;;;2.40;;
17606;SDS011;69222;52.242;20.980;2023-08-21T12:33:19;3.90;;;2.45;;
17606;SDS011;69222;52.242;20.980;2023-08-21T12:35:50;3.22;;;2.38;;
17606;SDS011;69222;52.242;20.980;2023-08-21T12:38:19;3.28;;;2.38;;
17606;SDS011;69222;52.242;20.980;2023-08-21T12:40:47;2.47;;;2.30;;
17606;SDS011;69222;52.242;20.980;2023-08-21T12:43:16;3.47;;;2.40;;
17606;SDS011;69222;52.242;20.980;2023-08-21T12:45:44;4.82;;;2.50;;
17606;SDS011;69222;52.242;20.980;2023-08-21T12:48:12;2.80;;;2.00;;
17606;SDS011;69222;52.242;20.980;2023-08-21T12:50:41;3.72;;;2.20;;
17606;SDS011;69222;52.242;20.980;2023-08-21T12:53:09;4.93;;;1.70;;
17606;SDS011;69222;52.242;20.980;2023-08-21T12:55:38;2.20;;;2.00;;
17606;SDS011;69222;52.242;20.980;2023-08-21T12:58:06;3.08;;;2.20;;
17606;SDS011;69222;52.242;20.980;2023-08-21T13:00:35;2.65;;;1.90;;
17606;SDS011;69222;52.242;20.980;2023-08-21T13:03:03;2.00;;;1.83;;
17606;SDS011;69222;52.242;20.980;2023-08-21T13:05:31;5.40;;;2.05;;
17606;SDS011;69222;52.242;20.980;2023-08-21T13:08:00;3.58;;;1.90;;
17606;SDS011;69222;52.242;20.980;2023-08-21T13:10:29;2.30;;;1.48;;
17606;SDS011;69222;52.242;20.980;2023-08-21T13:12:58;3.15;;;1.77;;
17606;SDS011;69222;52.242;20.980;2023-08-21T13:15:26;1.92;;;1.73;;
17606;SDS011;69222;52.242;20.980;2023-08-21T13:17:54;1.90;;;1.63;;
17606;SDS011;69222;52.242;20.980;2023-08-21T13:20:22;2.95;;;1.50;;
17606;SDS011;69222;52.242;20.980;2023-08-21T13:22:50;2.20;;;1.70;;
17606;SDS011;69222;52.242;20.980;2023-08-21T13:25:20;2.78;;;1.73;;
17606;SDS011;69222;52.242;20.980;2023-08-21T13:27:50;2.10;;;1.40;;
17606;SDS011;69222;52.242;20.980;2023-08-21T13:30:22;2.15;;;1.58;;
17606;SDS011;69222;52.242;20.980;2023-08-21T13:32:50;2.25;;;1.55;;
17606;SDS011;69222;52.242;20.980;2023-08-21T13:35:18;4.45;;;1.60;;
17606;SDS011;69222;52.242;20.980;2023-08-21T13:37:49;4.53;;;1.60;;
17606;SDS011;69222;52.242;20.980;2023-08-21T13:40:17;1.38;;;1.15;;
17606;SDS011;69222;52.242;20.980;2023-08-21T13:42:46;6.75;;;1.70;;
17606;SDS011;69222;52.242;20.980;2023-08-21T13:45:16;5.18;;;1.48;;
17606;SDS011;69222;52.242;20.980;2023-08-21T13:47:47;3.88;;;1.80;;
17606;SDS011;69222;52.242;20.980;2023-08-21T13:50:17;3.33;;;1.58;;
17606;SDS011;69222;52.242;20.980;2023-08-21T13:52:46;2.83;;;1.40;;
17606;SDS011;69222;52.242;20.980;2023-08-21T13:55:14;2.63;;;1.60;;
17606;SDS011;69222;52.242;20.980;2023-08-21T13:57:44;2.33;;;1.67;;
17606;SDS011;69222;52.242;20.980;2023-08-21T14:00:12;4.70;;;1.67;;
17606;SDS011;69222;52.242;20.980;2023-08-21T14:02:44;3.13;;;1.30;;
17606;SDS011;69222;52.242;20.980;2023-08-21T14:05:14;1.80;;;1.30;;
17606;SDS011;69222;52.242;20.980;2023-08-21T14:07:42;1.60;;;1.27;;
17606;SDS011;69222;52.242;20.980;2023-08-21T14:10:10;1.70;;;1.40;;
17606;SDS011;69222;52.242;20.980;2023-08-21T14:12:40;1.40;;;1.30;;
17606;SDS011;69222;52.242;20.980;2023-08-21T14:15:08;2.10;;;1.30;;
17606;SDS011;69222;52.242;20.980;2023-08-21T14:17:37;3.30;;;1.30;;
17606;SDS011;69222;52.242;20.980;2023-08-21T14:20:06;2.25;;;1.38;;
17606;SDS011;69222;52.242;20.980;2023-08-21T14:22:36;1.98;;;1.30;;
17606;SDS011;69222;52.242;20.980;2023-08-21T14:25:05;4.13;;;1.38;;
17606;SDS011;69222;52.242;20.980;2023-08-21T14:27:33;3.40;;;1.63;;
17606;SDS011;69222;52.242;20.980;2023-08-21T14:30:03;2.30;;;1.48;;